Time;durP1;ratioP1;P1;durP2;ratioP2;P2;SDS_P1;SDS_P2;PMS_P1;PMS_P2;Temp;Humidity;BMP_temperature;BMP_pressure;BME280_temperature;BME280_humidity;BME280_pressure;Samples;Min_cycle;Max_cycle;Signal;HPM_P1;HPM_P2
2024/01/01 00:00:13;;;;;;;5.70;5.22;;;;;;;;;;10134103;28;20068;-75
2024/01/01 00:05:07;;;;;;;6.57;4.40;;;;;;;;;;10126409;28;20041;-74
2024/01/01 00:09:59;;;;;;;3.67;3.38;;;;;;;;;;10148611;28;20132;-74
2024/01/01 00:14:51;;;;;;;3.22;2.92;;;;;;;;;;10142161;28;20049;-74
2024/01/01 00:19:42;;;;;;;2.92;2.70;;;;;;;;;;10140255;28;20364;-74
2024/01/01 00:24:34;;;;;;;2.85;2.58;;;;;;;;;;10134734;28;20041;-75
2024/01/01 00:29:26;;;;;;;2.95;2.75;;;;;;;;;;10140862;28;20097;-74
2024/01/01 00:34:27;;;;;;;4.22;3.58;;;;;;;;;;10121877;28;20064;-74
2024/01/01 00:39:19;;;;;;;4.40;3.42;;;;;;;;;;10143080;28;20531;-74
2024/01/01 00:44:11;;;;;;;3.30;3.08;;;;;;;;;;10141751;28;20028;-74
2024/01/01 00:49:03;;;;;;;4.13;3.72;;;;;;;;;;10134024;28;20425;-74
2024/01/01 00:53:54;;;;;;;4.47;3.88;;;;;;;;;;10122301;28;20368;-74
2024/01/01 00:58:46;;;;;;;5.25;4.32;;;;;;;;;;10147380;28;20040;-74
2024/01/01 01:03:38;;;;;;;6.68;4.65;;;;;;;;;;10116055;28;20128;-73
2024/01/01 01:08:30;;;;;;;3.85;3.35;;;;;;;;;;10127727;28;20049;-73
2024/01/01 01:13:22;;;;;;;3.08;2.75;;;;;;;;;;10121350;28;20368;-74
2024/01/01 01:18:14;;;;;;;2.60;2.40;;;;;;;;;;10122795;28;20053;-74
2024/01/01 01:23:06;;;;;;;4.20;2.67;;;;;;;;;;10127233;28;20367;-74
2024/01/01 01:27:58;;;;;;;3.03;2.70;;;;;;;;;;10127686;28;20045;-74
2024/01/01 01:32:50;;;;;;;3.60;3.30;;;;;;;;;;10108572;28;20418;-74
2024/01/01 01:37:45;;;;;;;1.60;1.50;;;;;;;;;;10130384;28;20160;-74
2024/01/01 01:42:37;;;;;;;1.88;1.73;;;;;;;;;;10128374;28;20562;-73
2024/01/01 01:47:29;;;;;;;3.15;1.50;;;;;;;;;;10130381;28;20040;-74
2024/01/01 01:52:22;;;;;;;2.00;1.75;;;;;;;;;;10135911;28;20036;-73
2024/01/01 01:57:14;;;;;;;1.95;1.75;;;;;;;;;;10155523;28;20041;-73
2024/01/01 02:02:06;;;;;;;3.38;2.30;;;;;;;;;;10127696;28;20052;-74
2024/01/01 02:06:58;;;;;;;4.75;4.35;;;;;;;;;;10112658;28;20044;-73
2024/01/01 02:11:50;;;;;;;12.48;11.20;;;;;;;;;;10127030;28;20040;-72
2024/01/01 02:16:44;;;;;;;15.32;13.60;;;;;;;;;;10124949;28;20255;-72
2024/01/01 02:21:36;;;;;;;17.17;15.38;;;;;;;;;;10119659;28;20036;-71
2024/01/01 02:26:28;;;;;;;16.85;14.55;;;;;;;;;;10120397;28;20041;-71
2024/01/01 02:31:21;;;;;;;17.17;14.20;;;;;;;;;;10143603;28;20056;-71
2024/01/01 02:36:13;;;;;;;18.20;16.20;;;;;;;;;;10137765;28;20036;-71
2024/01/01 02:41:04;;;;;;;16.13;14.30;;;;;;;;;;10141660;28;20127;-71
2024/01/01 02:45:56;;;;;;;18.02;16.17;;;;;;;;;;10117215;28;20455;-71
2024/01/01 02:50:48;;;;;;;20.33;16.88;;;;;;;;;;10136017;28;20379;-71
2024/01/01 02:55:40;;;;;;;21.13;16.75;;;;;;;;;;10106899;28;20080;-74
2024/01/01 03:00:33;;;;;;;20.70;18.38;;;;;;;;;;10140326;28;20456;-74
2024/01/01 03:05:25;;;;;;;19.58;17.55;;;;;;;;;;10116089;28;20094;-74
2024/01/01 03:10:17;;;;;;;20.67;18.33;;;;;;;;;;10162750;28;20048;-74
2024/01/01 03:15:09;;;;;;;19.65;17.67;;;;;;;;;;10134419;28;20390;-73
2024/01/01 03:20:04;;;;;;;18.60;16.67;;;;;;;;;;10143495;28;20076;-74
2024/01/01 03:24:56;;;;;;;20.65;18.45;;;;;;;;;;10131965;28;20075;-74
2024/01/01 03:29:49;;;;;;;20.33;16.80;;;;;;;;;;10119844;28;20053;-74
2024/01/01 03:34:42;;;;;;;18.90;16.77;;;;;;;;;;10138547;28;20044;-74
2024/01/01 03:39:34;;;;;;;19.52;17.50;;;;;;;;;;10122180;28;20498;-74
2024/01/01 03:44:26;;;;;;;19.15;17.05;;;;;;;;;;10134519;28;20036;-74
2024/01/01 03:49:18;;;;;;;20.15;18.02;;;;;;;;;;10138523;28;20507;-74
2024/01/01 03:54:10;;;;;;;21.02;18.98;;;;;;;;;;10140666;28;20052;-74
2024/01/01 03:59:02;;;;;;;20.92;18.33;;;;;;;;;;10139239;28;20095;-74
2024/01/01 04:04:00;;;;;;;21.67;19.45;;;;;;;;;;10130838;28;20040;-74
2024/01/01 04:08:52;;;;;;;25.95;20.85;;;;;;;;;;10156775;28;20036;-74
2024/01/01 04:13:44;;;;;;;23.33;20.52;;;;;;;;;;10139210;28;20038;-76
2024/01/01 04:18:35;;;;;;;26.83;22.65;;;;;;;;;;10131346;28;20044;-74
2024/01/01 04:23:27;;;;;;;23.65;21.17;;;;;;;;;;10122488;28;20037;-74
2024/01/01 04:28:19;;;;;;;23.35;20.50;;;;;;;;;;10128490;28;20044;-75
2024/01/01 04:33:11;;;;;;;25.38;21.55;;;;;;;;;;10144184;28;20046;-75
2024/01/01 04:38:03;;;;;;;25.30;22.35;;;;;;;;;;10144231;28;20479;-76
2024/01/01 04:42:56;;;;;;;22.88;19.10;;;;;;;;;;10139025;28;20110;-75
2024/01/01 04:47:48;;;;;;;20.95;18.75;;;;;;;;;;10145889;28;20044;-76
2024/01/01 04:52:42;;;;;;;25.60;21.63;;;;;;;;;;10127704;28;20071;-75
2024/01/01 04:57:34;;;;;;;22.13;19.73;;;;;;;;;;10108583;28;20048;-75
2024/01/01 05:02:26;;;;;;;22.20;19.70;;;;;;;;;;10143713;28;20083;-75
2024/01/01 05:07:18;;;;;;;23.52;20.75;;;;;;;;;;10126145;28;20087;-75
2024/01/01 05:12:13;;;;;;;28.60;20.42;;;;;;;;;;10142586;28;20056;-75
2024/01/01 05:17:05;;;;;;;23.35;20.92;;;;;;;;;;10134506;28;20068;-75
2024/01/01 05:21:58;;;;;;;23.17;19.58;;;;;;;;;;10121163;28;20102;-75
2024/01/01 05:26:49;;;;;;;22.50;20.17;;;;;;;;;;10123841;28;20124;-75
2024/01/01 05:31:41;;;;;;;23.00;19.38;;;;;;;;;;10119749;28;20144;-76
2024/01/01 05:36:33;;;;;;;20.08;17.50;;;;;;;;;;10129430;28;20056;-75
2024/01/01 05:41:26;;;;;;;20.15;17.98;;;;;;;;;;10112060;28;20045;-77
2024/01/01 05:46:18;;;;;;;20.63;18.50;;;;;;;;;;10110158;28;20040;-75
2024/01/01 05:51:10;;;;;;;20.15;17.83;;;;;;;;;;10108910;28;20403;-76
2024/01/01 05:56:03;;;;;;;21.05;18.70;;;;;;;;;;10113100;28;20044;-76
2024/01/01 06:00:55;;;;;;;22.30;19.85;;;;;;;;;;10135354;28;20235;-76
2024/01/01 06:05:47;;;;;;;29.00;21.45;;;;;;;;;;10122143;28;20098;-76
2024/01/01 06:10:39;;;;;;;63.15;42.53;;;;;;;;;;10146194;28;20048;-76
2024/01/01 06:15:31;;;;;;;58.20;46.53;;;;;;;;;;10133787;28;20048;-76
2024/01/01 06:20:23;;;;;;;22.88;20.15;;;;;;;;;;10119550;28;20051;-76
2024/01/01 06:25:15;;;;;;;21.67;18.20;;;;;;;;;;10109551;28;20042;-76
2024/01/01 06:30:07;;;;;;;20.38;17.63;;;;;;;;;;10108667;28;20053;-76
2024/01/01 06:34:59;;;;;;;83.22;58.05;;;;;;;;;;10108685;28;20365;-76
2024/01/01 06:39:51;;;;;;;28.42;24.63;;;;;;;;;;10108176;28;20045;-76
2024/01/01 06:44:43;;;;;;;21.80;19.45;;;;;;;;;;10115675;28;20039;-76
2024/01/01 06:49:35;;;;;;;18.88;16.23;;;;;;;;;;10116316;28;20072;-76
2024/01/01 06:54:27;;;;;;;17.40;15.52;;;;;;;;;;10116000;28;20106;-76
2024/01/01 06:59:19;;;;;;;21.92;15.95;;;;;;;;;;10115875;28;20053;-76
2024/01/01 07:04:11;;;;;;;18.45;15.90;;;;;;;;;;10116708;28;20088;-76
2024/01/01 07:09:03;;;;;;;19.73;17.42;;;;;;;;;;10114381;28;20045;-76
2024/01/01 07:13:55;;;;;;;26.10;23.40;;;;;;;;;;10116229;28;20045;-76
2024/01/01 07:18:46;;;;;;;22.90;19.05;;;;;;;;;;10114394;28;20045;-76
2024/01/01 07:23:38;;;;;;;22.38;17.58;;;;;;;;;;10116026;28;20132;-76
2024/01/01 07:28:30;;;;;;;19.38;17.38;;;;;;;;;;10115401;28;20403;-77
2024/01/01 07:33:22;;;;;;;31.27;23.75;;;;;;;;;;10114399;28;20437;-75
2024/01/01 07:38:14;;;;;;;23.88;18.88;;;;;;;;;;10113897;28;20045;-75
2024/01/01 07:43:06;;;;;;;27.15;21.60;;;;;;;;;;10115525;28;20037;-75
2024/01/01 07:47:58;;;;;;;21.95;17.15;;;;;;;;;;10113605;28;20083;-78
2024/01/01 07:52:51;;;;;;;23.88;18.85;;;;;;;;;;10114045;28;20456;-75
2024/01/01 07:57:46;;;;;;;32.97;29.35;;;;;;;;;;10113813;28;20040;-76
2024/01/01 08:02:38;;;;;;;24.58;20.83;;;;;;;;;;10120809;28;20045;-75
2024/01/01 08:07:30;;;;;;;26.58;23.42;;;;;;;;;;10113234;28;20124;-75
2024/01/01 08:12:22;;;;;;;18.83;15.77;;;;;;;;;;10119558;28;20072;-75
2024/01/01 08:17:14;;;;;;;29.20;25.08;;;;;;;;;;10147242;28;20064;-75
2024/01/01 08:22:06;;;;;;;23.48;20.25;;;;;;;;;;10144291;28;20048;-75
2024/01/01 08:26:57;;;;;;;23.85;19.90;;;;;;;;;;10142106;28;20041;-75
2024/01/01 08:31:49;;;;;;;21.52;18.17;;;;;;;;;;10144605;28;20064;-75
2024/01/01 08:36:41;;;;;;;40.35;36.05;;;;;;;;;;10146461;28;20037;-75
2024/01/01 08:41:33;;;;;;;32.83;29.27;;;;;;;;;;10121700;28;20045;-75
2024/01/01 08:46:26;;;;;;;23.23;20.70;;;;;;;;;;10132518;28;20402;-75
2024/01/01 08:51:19;;;;;;;21.20;18.60;;;;;;;;;;10120741;28;20052;-75
2024/01/01 08:56:11;;;;;;;26.90;24.10;;;;;;;;;;10139723;28;20080;-75
2024/01/01 09:01:04;;;;;;;24.88;22.05;;;;;;;;;;10139887;28;20048;-76
2024/01/01 09:05:57;;;;;;;26.65;23.58;;;;;;;;;;10135566;28;20441;-76
2024/01/01 09:10:50;;;;;;;42.00;36.30;;;;;;;;;;10135273;28;20055;-76
2024/01/01 09:15:42;;;;;;;29.20;25.02;;;;;;;;;;10125786;28;20045;-77
2024/01/01 09:20:34;;;;;;;20.65;18.10;;;;;;;;;;10130508;28;20040;-77
2024/01/01 09:25:26;;;;;;;23.65;19.15;;;;;;;;;;10146443;28;20044;-77
2024/01/01 09:30:18;;;;;;;19.92;17.02;;;;;;;;;;10144557;28;20049;-78
2024/01/01 09:35:10;;;;;;;22.65;19.00;;;;;;;;;;10142466;28;20498;-77
2024/01/01 09:40:02;;;;;;;21.40;18.40;;;;;;;;;;10140867;28;20056;-78
2024/01/01 09:44:54;;;;;;;23.35;20.13;;;;;;;;;;10139348;28;20382;-78
2024/01/01 09:49:46;;;;;;;25.30;21.45;;;;;;;;;;10141690;28;20144;-78
2024/01/01 09:54:38;;;;;;;29.42;23.17;;;;;;;;;;10146185;28;20132;-78
2024/01/01 09:59:37;;;;;;;58.28;44.30;;;;;;;;;;10125868;28;20071;-78
2024/01/01 10:04:30;;;;;;;24.40;21.90;;;;;;;;;;10113926;28;20037;-77
2024/01/01 10:09:21;;;;;;;22.70;20.25;;;;;;;;;;10142328;28;20044;-77
2024/01/01 10:14:13;;;;;;;22.63;18.60;;;;;;;;;;10145220;28;20071;-77
2024/01/01 10:19:06;;;;;;;22.98;17.50;;;;;;;;;;10138382;28;20041;-77
2024/01/01 10:23:59;;;;;;;23.92;19.67;;;;;;;;;;10130823;28;20052;-77
2024/01/01 10:28:56;;;;;;;21.92;19.58;;;;;;;;;;10121795;28;20075;-77
2024/01/01 10:33:49;;;;;;;21.95;18.27;;;;;;;;;;10120541;28;20047;-78
2024/01/01 10:38:41;;;;;;;33.03;24.40;;;;;;;;;;10123284;28;20076;-76
2024/01/01 10:43:33;;;;;;;23.80;19.27;;;;;;;;;;10129233;28;20463;-76
2024/01/01 10:48:25;;;;;;;23.25;20.75;;;;;;;;;;10140015;28;20040;-76
2024/01/01 10:53:37;;;;;;;21.83;19.48;;;;;;;;;;10119044;28;20056;-76
2024/01/01 10:58:32;;;;;;;19.80;17.58;;;;;;;;;;10131347;28;20036;-77
2024/01/01 11:03:24;;;;;;;21.00;18.88;;;;;;;;;;10117785;28;20437;-76
2024/01/01 11:08:26;;;;;;;20.17;16.70;;;;;;;;;;10132877;28;20041;-76
2024/01/01 11:13:27;;;;;;;19.83;15.95;;;;;;;;;;10140862;28;20113;-76
2024/01/01 11:18:22;;;;;;;14.98;13.45;;;;;;;;;;10118015;28;20360;-76
2024/01/01 11:23:35;;;;;;;14.68;11.90;;;;;;;;;;10125280;28;20357;-79
2024/01/01 11:28:39;;;;;;;14.70;12.60;;;;;;;;;;10128595;28;20090;-75
2024/01/01 11:33:31;;;;;;;13.73;12.07;;;;;;;;;;10138858;28;20040;-75
2024/01/01 11:38:23;;;;;;;16.80;13.25;;;;;;;;;;10138968;28;20143;-76
2024/01/01 11:43:15;;;;;;;15.73;13.82;;;;;;;;;;10135808;28;20114;-77
2024/01/01 11:48:07;;;;;;;17.80;14.25;;;;;;;;;;10128820;28;20045;-76
2024/01/01 11:53:00;;;;;;;16.95;15.13;;;;;;;;;;10144688;28;20048;-76
2024/01/01 11:57:52;;;;;;;14.90;13.30;;;;;;;;;;10142971;28;20052;-76
2024/01/01 12:02:44;;;;;;;16.30;14.25;;;;;;;;;;10130163;28;20102;-76
2024/01/01 12:07:36;;;;;;;15.00;13.45;;;;;;;;;;10146664;28;20128;-76
2024/01/01 12:12:28;;;;;;;17.20;15.00;;;;;;;;;;10148205;28;20090;-77
2024/01/01 12:17:20;;;;;;;17.95;14.57;;;;;;;;;;10145313;28;20044;-76
2024/01/01 12:22:23;;;;;;;23.33;20.92;;;;;;;;;;10131343;28;20049;-76
2024/01/01 12:27:14;;;;;;;18.75;15.40;;;;;;;;;;10144727;28;20119;-76
2024/01/01 12:32:06;;;;;;;17.73;14.73;;;;;;;;;;10138233;28;20109;-76
2024/01/01 12:36:59;;;;;;;17.35;15.68;;;;;;;;;;10138832;28;20041;-76
2024/01/01 12:41:51;;;;;;;15.13;13.52;;;;;;;;;;10142037;28;20075;-76
2024/01/01 12:46:43;;;;;;;17.83;14.00;;;;;;;;;;10146149;28;20052;-76
2024/01/01 12:51:35;;;;;;;17.67;15.77;;;;;;;;;;10140763;28;20059;-76
2024/01/01 12:56:27;;;;;;;17.15;15.40;;;;;;;;;;10139122;28;20044;-74
2024/01/01 13:01:20;;;;;;;17.30;14.57;;;;;;;;;;10122611;28;20033;-76
2024/01/01 13:06:16;;;;;;;17.55;14.85;;;;;;;;;;10135561;28;20731;-77
2024/01/01 13:11:10;;;;;;;18.58;15.77;;;;;;;;;;10130395;28;20063;-76
2024/01/01 13:16:02;;;;;;;18.80;16.80;;;;;;;;;;10141390;28;20036;-76
2024/01/01 13:20:55;;;;;;;18.38;16.55;;;;;;;;;;10120428;28;20075;-76
2024/01/01 13:25:48;;;;;;;19.05;15.30;;;;;;;;;;10141971;28;20080;-77
2024/01/01 13:30:43;;;;;;;19.40;15.43;;;;;;;;;;10131077;28;20114;-76
2024/01/01 13:35:35;;;;;;;20.38;18.23;;;;;;;;;;10137123;28;20063;-76
2024/01/01 13:40:27;;;;;;;21.20;17.77;;;;;;;;;;10135744;28;20068;-77
2024/01/01 13:45:21;;;;;;;17.77;15.40;;;;;;;;;;10144959;28;20136;-77
2024/01/01 13:50:14;;;;;;;17.70;15.80;;;;;;;;;;10124114;28;20088;-77
2024/01/01 13:55:06;;;;;;;18.10;16.20;;;;;;;;;;10142594;28;20068;-79
2024/01/01 13:59:59;;;;;;;19.20;16.10;;;;;;;;;;10134663;28;20048;-76
2024/01/01 14:04:52;;;;;;;21.30;18.60;;;;;;;;;;10141551;28;20061;-77
2024/01/01 14:09:44;;;;;;;19.58;16.73;;;;;;;;;;10141630;28;20044;-76
2024/01/01 14:14:36;;;;;;;18.67;15.93;;;;;;;;;;10143450;28;20536;-77
2024/01/01 14:19:27;;;;;;;22.13;17.02;;;;;;;;;;10135783;28;20119;-77
2024/01/01 14:24:19;;;;;;;20.63;18.50;;;;;;;;;;10129755;28;20082;-77
2024/01/01 14:29:11;;;;;;;20.05;17.10;;;;;;;;;;10128707;28;20107;-76
2024/01/01 14:34:04;;;;;;;24.25;21.20;;;;;;;;;;10132576;28;20094;-73
2024/01/01 14:38:56;;;;;;;19.98;17.88;;;;;;;;;;10137609;28;20044;-75
2024/01/01 14:43:48;;;;;;;19.55;15.82;;;;;;;;;;10125940;28;20132;-73
2024/01/01 14:48:40;;;;;;;19.20;15.90;;;;;;;;;;10144431;28;20076;-75
2024/01/01 14:53:32;;;;;;;24.58;18.02;;;;;;;;;;10121172;28;20060;-76
2024/01/01 14:58:24;;;;;;;21.45;19.05;;;;;;;;;;10143728;28;20064;-78
2024/01/01 15:03:17;;;;;;;39.15;29.73;;;;;;;;;;10134873;28;21380;-72
2024/01/01 15:08:10;;;;;;;21.55;17.52;;;;;;;;;;10131022;28;20048;-77
2024/01/01 15:13:02;;;;;;;22.45;17.77;;;;;;;;;;10137720;28;20383;-77
2024/01/01 15:17:54;;;;;;;40.83;28.77;;;;;;;;;;10136508;28;20036;-77
2024/01/01 15:22:46;;;;;;;22.33;18.60;;;;;;;;;;10138655;28;20218;-77
2024/01/01 15:27:38;;;;;;;23.58;20.10;;;;;;;;;;10122431;28;20475;-77
2024/01/01 15:32:29;;;;;;;21.25;19.00;;;;;;;;;;10124994;28;20059;-77
2024/01/01 15:37:22;;;;;;;32.85;27.55;;;;;;;;;;10133499;28;20048;-77
2024/01/01 15:42:13;;;;;;;25.00;21.15;;;;;;;;;;10141714;28;20376;-77
2024/01/01 15:47:05;;;;;;;26.67;20.05;;;;;;;;;;10144392;28;20463;-77
2024/01/01 15:51:57;;;;;;;33.10;25.50;;;;;;;;;;10144486;28;20048;-77
2024/01/01 15:56:49;;;;;;;19.95;17.20;;;;;;;;;;10135182;28;20446;-77
2024/01/01 16:01:41;;;;;;;20.15;16.88;;;;;;;;;;10129690;28;20090;-77
2024/01/01 16:06:33;;;;;;;17.88;15.73;;;;;;;;;;10141957;28;20391;-77
2024/01/01 16:11:25;;;;;;;24.35;17.98;;;;;;;;;;10134934;28;20100;-77
2024/01/01 16:16:17;;;;;;;18.90;15.68;;;;;;;;;;10115518;28;20132;-77
2024/01/01 16:21:09;;;;;;;17.65;14.75;;;;;;;;;;10131051;28;20124;-77
2024/01/01 16:26:01;;;;;;;17.45;14.77;;;;;;;;;;10136508;28;20052;-77
2024/01/01 16:30:53;;;;;;;15.63;13.48;;;;;;;;;;10130844;28;20037;-77
2024/01/01 16:35:45;;;;;;;15.30;13.15;;;;;;;;;;10143132;28;20592;-77
2024/01/01 16:40:43;;;;;;;15.13;13.23;;;;;;;;;;10128284;28;20072;-77
2024/01/01 16:45:36;;;;;;;68.40;47.60;;;;;;;;;;10133402;28;20071;-77
2024/01/01 16:50:28;;;;;;;106.93;75.57;;;;;;;;;;10145192;28;20041;-76
2024/01/01 16:55:20;;;;;;;28.08;25.13;;;;;;;;;;10138327;28;20060;-77
2024/01/01 17:00:12;;;;;;;47.95;42.63;;;;;;;;;;10138173;28;20045;-77
2024/01/01 17:05:04;;;;;;;40.85;30.58;;;;;;;;;;10123682;28;20063;-77
2024/01/01 17:09:57;;;;;;;18.83;16.83;;;;;;;;;;10138586;28;20048;-77
2024/01/01 17:14:48;;;;;;;14.93;12.75;;;;;;;;;;10127388;28;20045;-78
2024/01/01 17:19:40;;;;;;;21.25;18.92;;;;;;;;;;10135618;28;20095;-78
2024/01/01 17:24:32;;;;;;;27.95;24.83;;;;;;;;;;10123014;28;20048;-77
2024/01/01 17:29:26;;;;;;;16.80;14.38;;;;;;;;;;10124328;28;20443;-77
2024/01/01 17:34:18;;;;;;;14.05;12.63;;;;;;;;;;10126075;28;20048;-71
2024/01/01 17:39:10;;;;;;;15.65;13.75;;;;;;;;;;10125942;28;20032;-71
2024/01/01 17:44:02;;;;;;;15.45;12.77;;;;;;;;;;10127994;28;20049;-72
2024/01/01 17:48:54;;;;;;;20.15;17.17;;;;;;;;;;10134679;28;20132;-72
2024/01/01 17:53:46;;;;;;;36.33;30.77;;;;;;;;;;10143139;28;20054;-71
2024/01/01 17:58:38;;;;;;;19.63;17.23;;;;;;;;;;10118263;28;20807;-71
2024/01/01 18:03:30;;;;;;;20.55;18.42;;;;;;;;;;10128126;28;20752;-71
2024/01/01 18:08:22;;;;;;;19.95;16.75;;;;;;;;;;10120768;28;20056;-72
2024/01/01 18:13:14;;;;;;;19.02;17.05;;;;;;;;;;10136852;28;20493;-71
2024/01/01 18:18:10;;;;;;;18.30;16.40;;;;;;;;;;10135291;28;20437;-71
2024/01/01 18:23:03;;;;;;;23.23;18.40;;;;;;;;;;10139519;28;20110;-71
2024/01/01 18:27:55;;;;;;;24.65;21.50;;;;;;;;;;10130124;28;20051;-71
2024/01/01 18:32:47;;;;;;;25.83;22.33;;;;;;;;;;10142085;28;20154;-71
2024/01/01 18:37:39;;;;;;;27.25;23.58;;;;;;;;;;10134007;28;20045;-71
2024/01/01 18:42:31;;;;;;;29.25;25.95;;;;;;;;;;10152248;28;20049;-72
2024/01/01 18:47:26;;;;;;;32.15;27.75;;;;;;;;;;10137880;28;20049;-72
2024/01/01 18:52:18;;;;;;;39.85;35.38;;;;;;;;;;10152878;28;20067;-72
2024/01/01 18:57:10;;;;;;;34.90;29.30;;;;;;;;;;10120646;28;20442;-72
2024/01/01 19:02:02;;;;;;;38.78;31.05;;;;;;;;;;10122850;28;20581;-72
2024/01/01 19:06:54;;;;;;;120.35;35.88;;;;;;;;;;10128578;28;20107;-72
2024/01/01 19:11:46;;;;;;;80.80;37.33;;;;;;;;;;10152970;28;20406;-72
2024/01/01 19:16:38;;;;;;;97.45;43.80;;;;;;;;;;10128798;28;20036;-72
2024/01/01 19:21:30;;;;;;;70.78;36.63;;;;;;;;;;10156574;28;20059;-72
2024/01/01 19:26:22;;;;;;;78.22;39.67;;;;;;;;;;10140890;28;20044;-71
2024/01/01 19:31:15;;;;;;;102.82;43.95;;;;;;;;;;10141838;28;20052;-72
2024/01/01 19:36:16;;;;;;;158.05;34.30;;;;;;;;;;10121284;28;20040;-71
2024/01/01 19:41:08;;;;;;;159.85;37.70;;;;;;;;;;10120773;28;20041;-71
2024/01/01 19:45:59;;;;;;;162.63;35.67;;;;;;;;;;10121528;28;20040;-72
2024/01/01 19:50:51;;;;;;;63.72;34.38;;;;;;;;;;10113812;28;20143;-72
2024/01/01 19:55:44;;;;;;;118.82;36.95;;;;;;;;;;10114330;28;20041;-72
2024/01/01 20:00:36;;;;;;;89.10;35.03;;;;;;;;;;10114399;28;20040;-72
2024/01/01 20:05:28;;;;;;;76.05;35.08;;;;;;;;;;10113954;28;20495;-72
2024/01/01 20:10:20;;;;;;;56.83;32.22;;;;;;;;;;10120029;28;20130;-72
2024/01/01 20:15:12;;;;;;;91.88;36.97;;;;;;;;;;10115109;28;20047;-72
2024/01/01 20:20:05;;;;;;;81.82;42.97;;;;;;;;;;10112419;28;20041;-72
2024/01/01 20:24:57;;;;;;;70.40;37.88;;;;;;;;;;10109889;28;20049;-72
2024/01/01 20:29:49;;;;;;;54.08;33.47;;;;;;;;;;10123513;28;20048;-72
2024/01/01 20:34:41;;;;;;;39.85;32.38;;;;;;;;;;10136088;28;20049;-72
2024/01/01 20:39:33;;;;;;;51.70;36.60;;;;;;;;;;10139054;28;20059;-72
2024/01/01 20:44:26;;;;;;;137.77;42.35;;;;;;;;;;10135025;28;20040;-72
2024/01/01 20:49:18;;;;;;;73.47;38.58;;;;;;;;;;10142115;28;20047;-72
2024/01/01 20:54:10;;;;;;;80.72;35.08;;;;;;;;;;10145363;28;20040;-72
2024/01/01 20:59:02;;;;;;;78.35;40.60;;;;;;;;;;10135963;28;20044;-72
2024/01/01 21:03:54;;;;;;;59.85;31.63;;;;;;;;;;10134400;28;20051;-72
2024/01/01 21:08:47;;;;;;;57.10;31.40;;;;;;;;;;10142181;28;20053;-70
2024/01/01 21:13:39;;;;;;;63.63;35.30;;;;;;;;;;10144525;28;20144;-70
2024/01/01 21:18:30;;;;;;;51.85;34.05;;;;;;;;;;10142908;28;20041;-73
2024/01/01 21:23:24;;;;;;;76.43;31.80;;;;;;;;;;10142715;28;20052;-71
2024/01/01 21:28:16;;;;;;;51.50;31.42;;;;;;;;;;10128851;28;20087;-71
2024/01/01 21:33:08;;;;;;;58.17;34.83;;;;;;;;;;10116901;28;20052;-71
2024/01/01 21:38:00;;;;;;;45.80;29.08;;;;;;;;;;10137077;28;20131;-70
2024/01/01 21:42:54;;;;;;;59.72;28.52;;;;;;;;;;10119833;28;20151;-71
2024/01/01 21:47:46;;;;;;;43.88;28.13;;;;;;;;;;10135965;28;20045;-71
2024/01/01 21:52:38;;;;;;;53.65;31.55;;;;;;;;;;10103091;28;20045;-71
2024/01/01 21:57:30;;;;;;;61.53;43.72;;;;;;;;;;10117783;28;20069;-71
2024/01/01 22:02:26;;;;;;;46.17;29.35;;;;;;;;;;10114339;28;20033;-71
2024/01/01 22:07:18;;;;;;;66.78;30.17;;;;;;;;;;10127666;28;20098;-71
2024/01/01 22:12:10;;;;;;;46.80;30.27;;;;;;;;;;10129109;28;20048;-71
2024/01/01 22:17:02;;;;;;;65.95;41.80;;;;;;;;;;10128627;28;20045;-71
2024/01/01 22:21:55;;;;;;;76.05;34.60;;;;;;;;;;10134513;28;20060;-71
2024/01/01 22:26:46;;;;;;;52.05;28.08;;;;;;;;;;10140322;28;20106;-71
2024/01/01 22:31:39;;;;;;;64.45;28.67;;;;;;;;;;10136863;28;20053;-71
2024/01/01 22:36:31;;;;;;;56.75;27.80;;;;;;;;;;10143355;28;20041;-71
2024/01/01 22:41:23;;;;;;;45.42;24.88;;;;;;;;;;10126843;28;20053;-71
2024/01/01 22:46:16;;;;;;;64.55;24.33;;;;;;;;;;10132876;28;20055;-71
2024/01/01 22:51:08;;;;;;;71.30;23.50;;;;;;;;;;10132979;28;20037;-71
2024/01/01 22:56:01;;;;;;;64.25;23.40;;;;;;;;;;10140799;28;20064;-71
2024/01/01 23:00:55;;;;;;;43.53;25.50;;;;;;;;;;10128125;28;20076;-71
2024/01/01 23:05:47;;;;;;;46.55;24.75;;;;;;;;;;10134587;28;20106;-71
2024/01/01 23:10:39;;;;;;;32.63;24.25;;;;;;;;;;10116738;28;20051;-71
2024/01/01 23:15:30;;;;;;;51.45;22.80;;;;;;;;;;10144714;28;20072;-71
2024/01/01 23:20:22;;;;;;;49.58;23.58;;;;;;;;;;10130543;28;20104;-71
2024/01/01 23:25:14;;;;;;;53.22;22.77;;;;;;;;;;10124093;28;20045;-71
2024/01/01 23:30:07;;;;;;;39.03;21.85;;;;;;;;;;10119436;28;20076;-71
2024/01/01 23:34:59;;;;;;;51.33;20.30;;;;;;;;;;10150667;28;20060;-71
2024/01/01 23:39:51;;;;;;;43.97;22.42;;;;;;;;;;10151835;28;20082;-71
2024/01/01 23:44:43;;;;;;;35.92;21.95;;;;;;;;;;10125841;28;20063;-71
2024/01/01 23:49:35;;;;;;;31.15;21.90;;;;;;;;;;10137950;28;20045;-71
2024/01/01 23:54:27;;;;;;;33.50;18.95;;;;;;;;;;10124861;28;20115;-71
2024/01/01 23:59:19;;;;;;;30.85;18.80;;;;;;;;;;10124408;28;20075;-71
